Anch, Alaska
Current Conditions -  °F | °C
As of 12:58 AM on Saturday 25 Oct 2014 (Local Time) from PAED Reporting Station
Unknown Precip Unknown Precip  
Wind Chill: 31°   Ceiling: 3000
Heat Index: 31°   Visibility: 7mi
Dew Point: 28°   Wind: 2mph
Humidity: 91%   Direction: 90°E
Pressure: 29.9"   Gusts: NA
Location:  61.2265°N, 149.62°W
Report Text: PAED 250858Z AUTO 09002KT 7SM UP FEW019 OVC030 M01/M02 A2990 RMK AO2 UPB0852 SLP123 P0000 60000 T10071020 400251062 50003 $
Loading
Personal Weather Stations






























Interactive Weather Map New forecast layout! Learn more

10-Day Weather Forecast

Advertisements
Track Severe Weather on mobile